Time;durP1;ratioP1;P1;durP2;ratioP2;P2;SDS_P1;SDS_P2;PMS_P1;PMS_P2;Temp;Humidity;BMP_temperature;BMP_pressure;BME280_temperature;BME280_humidity;BME280_pressure;Samples;Min_cycle;Max_cycle;Signal;HPM_P1;HPM_P2
2023/07/21 00:03:58;;;;;;;3.85;1.25;;;19.70;71.60;;;18.66;59.54;99769.88;10421480;27;97234;-86
2023/07/21 00:09:05;;;;;;;3.10;1.33;;;19.70;72.10;;;18.60;59.47;99771.59;10429354;27;97500;-86
2023/07/21 00:14:10;;;;;;;3.97;1.52;;;19.50;72.00;;;18.57;59.04;99768.53;10436754;27;97114;-85
2023/07/21 00:19:14;;;;;;;2.13;1.10;;;19.50;72.00;;;18.54;59.26;99771.72;10412900;27;97990;-85
2023/07/21 00:24:19;;;;;;;1.92;1.00;;;19.50;71.90;;;18.45;59.50;99773.91;10417274;27;96653;-85
2023/07/21 00:29:23;;;;;;;2.67;1.08;;;19.50;72.30;;;18.39;60.02;99780.19;10462151;27;96574;-85
2023/07/21 00:34:26;;;;;;;2.65;1.10;;;19.30;72.40;;;18.31;59.14;99765.19;10412976;27;96763;-85
2023/07/21 00:39:30;;;;;;;1.83;1.00;;;19.30;72.30;;;18.30;59.22;99774.31;10431858;27;96582;-85
2023/07/21 00:44:36;;;;;;;3.75;1.38;;;19.20;72.30;;;18.28;59.57;99768.34;10446623;27;97339;-86
2023/07/21 00:49:40;;;;;;;2.08;0.80;;;19.20;72.40;;;18.33;60.03;99770.34;10429084;27;96630;-86
2023/07/21 00:54:47;;;;;;;1.58;1.00;;;19.20;72.50;;;18.26;60.47;99765.06;10413486;27;96577;-86
2023/07/21 00:59:51;;;;;;;1.63;0.80;;;19.20;72.80;;;18.24;60.87;99758.28;10436309;27;96719;-85
2023/07/21 01:05:01;;;;;;;2.40;1.30;;;19.20;73.20;;;18.13;61.57;99760.69;10432953;27;97370;-85
2023/07/21 01:10:07;;;;;;;1.98;1.40;;;19.10;73.60;;;18.14;61.92;99758.81;10455114;27;96573;-85
2023/07/21 01:15:12;;;;;;;3.33;1.30;;;19.00;73.90;;;18.18;61.98;99757.31;10423336;27;96561;-85
2023/07/21 01:20:17;;;;;;;1.48;1.08;;;19.10;74.20;;;18.25;62.09;99749.97;10422457;27;97328;-85
2023/07/21 01:25:22;;;;;;;2.38;1.10;;;19.20;73.90;;;18.30;60.86;99743.91;10409663;27;96709;-86
2023/07/21 01:30:28;;;;;;;3.25;1.42;;;19.20;73.50;;;18.39;60.32;99759.50;10442078;27;96708;-86
2023/07/21 01:35:34;;;;;;;1.60;1.00;;;19.30;73.20;;;18.49;60.18;99755.44;10427358;27;96735;-86
2023/07/21 01:40:39;;;;;;;1.70;1.15;;;19.50;73.10;;;18.57;60.15;99757.78;10425101;27;96527;-86
2023/07/21 01:45:43;;;;;;;3.00;1.02;;;19.60;72.80;;;18.60;59.51;99750.06;10443276;27;96561;-86
2023/07/21 01:50:47;;;;;;;2.05;1.30;;;19.60;72.40;;;18.61;59.11;99756.28;10415009;27;96633;-85
2023/07/21 01:55:57;;;;;;;2.10;1.30;;;19.60;72.30;;;18.71;58.93;99756.53;10431363;27;96824;-86
2023/07/21 02:01:03;;;;;;;1.38;1.00;;;19.60;72.30;;;18.72;58.98;99750.13;10442294;27;96613;-85
2023/07/21 02:06:14;;;;;;;2.38;1.50;;;19.70;72.10;;;18.80;58.36;99760.56;10440635;27;96503;-86
2023/07/21 02:11:20;;;;;;;2.72;1.20;;;19.80;71.80;;;18.84;57.75;99750.16;10414150;27;98516;-86
2023/07/21 02:16:24;;;;;;;2.92;1.00;;;19.80;71.50;;;18.95;57.80;99763.63;10439405;27;96543;-85
2023/07/21 02:21:28;;;;;;;1.83;0.88;;;19.90;71.40;;;19.01;57.83;99772.63;10474412;27;96590;-86
2023/07/21 02:26:32;;;;;;;2.90;1.10;;;20.00;71.30;;;19.01;58.10;99769.09;10441988;27;97018;-86
2023/07/21 02:31:36;;;;;;;2.22;1.10;;;20.10;71.20;;;19.00;58.27;99765.59;10415861;27;97979;-86
2023/07/21 02:36:40;;;;;;;2.72;1.33;;;20.10;71.30;;;19.02;57.64;99778.84;10409672;27;96930;-85
2023/07/21 02:41:43;;;;;;;2.42;1.35;;;20.00;71.40;;;19.05;58.16;99795.34;10392576;27;98428;-85
2023/07/21 02:46:47;;;;;;;3.13;1.30;;;20.00;71.90;;;19.02;59.46;99784.22;10428921;27;96571;-86
2023/07/21 02:51:51;;;;;;;1.80;1.20;;;20.00;72.20;;;19.05;60.81;99779.19;10437258;27;98044;-85
2023/07/21 02:56:55;;;;;;;5.38;1.80;;;20.10;73.10;;;19.07;62.06;99785.19;10422187;27;96709;-85
2023/07/21 03:02:00;;;;;;;2.58;1.20;;;20.00;73.80;;;18.98;61.91;99782.00;10432056;27;97095;-85
2023/07/21 03:07:04;;;;;;;2.97;1.17;;;20.00;74.10;;;18.93;61.97;99789.94;10439775;27;96660;-87
2023/07/21 03:12:08;;;;;;;2.45;1.50;;;20.00;74.30;;;18.93;62.16;99803.41;10426009;27;96617;-86
2023/07/21 03:17:12;;;;;;;2.53;1.35;;;19.90;74.60;;;18.88;62.93;99797.88;10424648;27;98737;-86
2023/07/21 03:22:16;;;;;;;4.65;1.52;;;19.90;75.00;;;18.95;63.42;99795.09;10435520;27;96760;-86
2023/07/21 03:27:21;;;;;;;4.63;1.40;;;19.90;75.30;;;19.02;63.61;99792.31;10433388;27;98442;-86
2023/07/21 03:32:24;;;;;;;2.53;1.27;;;20.00;75.60;;;19.10;63.42;99782.00;10420509;27;98360;-86
2023/07/21 03:37:30;;;;;;;1.83;1.40;;;20.00;75.50;;;19.21;63.70;99785.75;10421074;27;96680;-86
2023/07/21 03:42:35;;;;;;;2.65;1.58;;;20.20;75.70;;;19.33;63.63;99789.25;10439684;27;97401;-86
2023/07/21 03:47:38;;;;;;;2.85;1.50;;;20.30;75.60;;;19.46;63.43;99791.72;10426216;27;97228;-86
2023/07/21 03:52:42;;;;;;;2.42;1.50;;;20.40;75.60;;;19.52;62.94;99785.38;10440993;27;96694;-85
2023/07/21 03:57:46;;;;;;;5.57;1.73;;;20.50;75.20;;;19.56;62.09;99787.63;10423024;27;96595;-87
2023/07/21 04:02:49;;;;;;;4.95;1.40;;;20.50;74.90;;;19.59;61.91;99790.66;10432541;27;96539;-86
2023/07/21 04:07:53;;;;;;;4.70;1.98;;;20.60;74.90;;;19.65;61.92;99799.69;10447639;27;96774;-86
2023/07/21 04:12:57;;;;;;;2.85;1.25;;;20.70;74.90;;;19.66;61.38;99804.00;10422754;27;96604;-86
2023/07/21 04:18:02;;;;;;;2.65;1.60;;;20.70;74.50;;;19.65;62.15;99792.41;10419195;27;97882;-86
2023/07/21 04:23:05;;;;;;;2.40;1.48;;;20.70;75.00;;;19.65;62.96;99784.31;10439418;27;96628;-86
2023/07/21 04:28:10;;;;;;;4.82;1.63;;;20.70;75.40;;;19.64;63.65;99793.47;10438847;27;98165;-86
2023/07/21 04:33:13;;;;;;;4.25;1.77;;;20.60;75.90;;;19.67;64.05;99793.03;10419578;27;97441;-86
2023/07/21 04:38:17;;;;;;;1.73;1.08;;;20.70;76.20;;;19.69;63.15;99804.38;10433255;27;97397;-86
2023/07/21 04:43:21;;;;;;;2.65;1.15;;;20.70;75.90;;;19.69;63.06;99795.47;10458343;27;97814;-86
2023/07/21 04:48:25;;;;;;;4.65;1.60;;;20.60;75.90;;;19.74;63.25;99799.09;10411851;27;97087;-87
2023/07/21 04:53:29;;;;;;;1.77;1.40;;;20.70;76.30;;;19.86;64.38;99795.56;10424706;27;96655;-86
2023/07/21 04:58:32;;;;;;;4.40;1.70;;;20.80;76.30;;;20.02;62.92;99809.09;10470080;27;96915;-86
2023/07/21 05:03:36;;;;;;;6.07;1.80;;;21.00;75.90;;;20.20;62.64;99796.47;10435969;27;98028;-86
2023/07/21 05:08:40;;;;;;;1.80;1.40;;;21.10;75.80;;;20.42;63.40;99797.44;10432283;27;97674;-87
2023/07/21 05:13:48;;;;;;;3.65;2.08;;;21.30;75.90;;;20.64;62.55;99807.59;10444129;27;98033;-87
2023/07/21 05:18:52;;;;;;;5.38;2.25;;;21.50;75.80;;;20.77;62.77;99802.69;10419443;27;98462;-87
2023/07/21 05:23:55;;;;;;;4.00;1.60;;;21.70;75.80;;;20.90;61.35;99812.34;10457414;27;98520;-85
2023/07/21 05:28:59;;;;;;;2.45;1.80;;;21.90;75.00;;;20.96;61.60;99802.47;10442084;27;96684;-86
2023/07/21 05:34:07;;;;;;;3.40;2.08;;;21.90;74.60;;;21.02;61.11;99807.69;10456389;27;98148;-86
2023/07/21 05:39:11;;;;;;;3.97;1.73;;;22.00;74.50;;;21.11;61.35;99794.56;10449112;27;96548;-86
2023/07/21 05:44:14;;;;;;;4.57;2.00;;;22.20;74.70;;;21.25;61.13;99781.56;10445484;27;96506;-85
2023/07/21 05:49:18;;;;;;;4.13;1.95;;;22.30;74.30;;;21.29;60.73;99777.31;10441183;27;96711;-85
2023/07/21 05:54:23;;;;;;;9.07;2.20;;;22.40;74.30;;;21.38;60.43;99800.16;10453473;27;96371;-85
2023/07/21 05:59:26;;;;;;;5.68;2.20;;;22.50;74.00;;;21.50;60.66;99790.06;10428703;27;96504;-85
2023/07/21 06:04:30;;;;;;;7.75;2.15;;;22.60;74.10;;;21.61;60.69;99781.03;10473773;27;96848;-85
2023/07/21 06:09:34;;;;;;;6.03;1.88;;;22.70;74.00;;;21.76;60.38;99795.81;10458102;27;98153;-85
2023/07/21 06:14:38;;;;;;;3.25;1.80;;;22.80;73.70;;;21.86;60.22;99804.06;10450016;27;96657;-85
2023/07/21 06:19:42;;;;;;;4.55;1.95;;;22.90;74.00;;;21.89;60.40;99815.19;10446196;27;97051;-85
2023/07/21 06:24:45;;;;;;;3.08;1.77;;;23.00;73.70;;;21.91;59.79;99806.81;10439229;27;96463;-85
2023/07/21 06:29:49;;;;;;;5.28;2.05;;;23.00;73.80;;;21.92;60.02;99821.97;10443034;27;97445;-85
2023/07/21 06:34:53;;;;;;;3.15;1.80;;;23.00;73.60;;;21.92;59.79;99819.28;10440283;27;96854;-85
2023/07/21 06:39:57;;;;;;;2.83;1.52;;;23.00;73.80;;;21.91;60.27;99823.06;10443630;27;96690;-85
2023/07/21 06:45:01;;;;;;;3.20;2.20;;;23.00;73.90;;;21.81;59.73;99825.63;10434950;27;98422;-84
2023/07/21 06:50:07;;;;;;;2.47;1.60;;;22.90;73.70;;;21.82;59.87;99827.25;10443688;27;96418;-85
2023/07/21 06:55:11;;;;;;;3.88;2.00;;;22.90;73.80;;;21.75;59.83;99807.69;10443980;27;96578;-84
2023/07/21 07:00:16;;;;;;;4.18;2.00;;;22.90;73.80;;;21.82;60.50;99819.13;10426174;27;98282;-85
2023/07/21 07:05:20;;;;;;;5.00;2.17;;;22.90;74.30;;;21.84;60.60;99830.53;10452349;27;96989;-85
2023/07/21 07:10:23;;;;;;;3.78;1.73;;;22.90;74.40;;;21.82;59.99;99813.72;10459353;27;96541;-85
2023/07/21 07:15:27;;;;;;;2.95;1.83;;;22.90;74.10;;;21.87;60.51;99803.78;10432859;27;96742;-85
2023/07/21 07:20:31;;;;;;;4.63;2.25;;;22.90;74.20;;;22.00;60.35;99802.59;10442559;27;96589;-85
2023/07/21 07:25:35;;;;;;;9.07;2.25;;;23.10;74.10;;;22.10;60.19;99789.22;10431946;27;98464;-85
2023/07/21 07:30:39;;;;;;;5.50;2.20;;;23.20;74.10;;;22.22;60.45;99790.97;10433649;27;96621;-85
2023/07/21 07:35:51;;;;;;;3.13;2.00;;;23.30;74.40;;;22.29;58.99;99778.06;10405297;27;96686;-85
2023/07/21 07:41:06;;;;;;;7.60;2.15;;;23.40;73.60;;;22.37;58.57;99772.16;10414499;28;96855;-84
2023/07/21 07:46:09;;;;;;;2.92;1.88;;;23.50;73.40;;;22.40;58.18;99769.78;10425131;27;96495;-85
2023/07/21 07:51:13;;;;;;;5.28;1.98;;;23.50;73.00;;;22.48;57.83;99765.78;10400367;27;96438;-84
2023/07/21 07:56:17;;;;;;;4.95;1.90;;;23.60;72.60;;;22.60;58.04;99771.84;10416955;27;96768;-85
2023/07/21 08:01:20;;;;;;;6.13;2.22;;;23.70;72.80;;;22.65;57.70;99780.03;10438847;27;96785;-84
2023/07/21 08:06:24;;;;;;;7.25;2.30;;;23.80;72.40;;;22.82;57.16;99769.06;10424350;27;96616;-85
2023/07/21 08:11:30;;;;;;;6.43;1.90;;;23.90;72.00;;;23.05;56.47;99767.94;10457466;27;96549;-84
2023/07/21 08:16:35;;;;;;;4.15;2.15;;;24.20;71.60;;;23.28;57.12;99755.88;10450914;27;97090;-84
2023/07/21 08:21:39;;;;;;;2.80;2.20;;;24.30;72.00;;;23.48;56.61;99755.16;10419441;27;97396;-85
2023/07/21 08:26:43;;;;;;;4.82;2.10;;;24.60;71.50;;;23.56;56.19;99741.09;10453763;27;97110;-84
2023/07/21 08:31:46;;;;;;;7.35;2.30;;;24.70;71.10;;;23.69;56.16;99754.22;10416001;27;97353;-84
2023/07/21 08:36:50;;;;;;;3.78;2.10;;;24.80;71.00;;;23.82;56.06;99757.53;10436708;27;96586;-84
2023/07/21 08:41:59;;;;;;;3.55;1.90;;;25.00;71.00;;;23.93;55.65;99767.31;10427800;27;96798;-84
2023/07/21 08:47:03;;;;;;;6.60;2.33;;;25.10;70.80;;;;;;10436231;27;96686;-84
2023/07/21 08:52:07;;;;;;;2.85;1.98;;;25.20;71.30;;;24.25;55.49;99769.88;10449445;27;96395;-84
2023/07/21 08:57:12;;;;;;;9.50;2.42;;;25.40;71.00;;;24.40;55.58;99755.53;10431143;27;97222;-84
2023/07/21 09:02:16;;;;;;;7.72;2.47;;;25.50;70.70;;;24.50;55.67;99742.78;10428215;27;97214;-84
2023/07/21 09:07:19;;;;;;;3.55;2.20;;;25.60;70.70;;;24.59;55.71;99743.06;10454686;27;97720;-84
2023/07/21 09:12:36;;;;;;;4.03;2.10;;;25.70;70.80;;;24.81;55.46;99730.00;10439385;27;96586;-84
2023/07/21 09:17:43;;;;;;;3.97;2.25;;;25.90;70.80;;;25.02;55.47;99716.41;10458656;27;97188;-84
2023/07/21 09:22:49;;;;;;;5.47;1.92;;;26.10;71.00;;;25.25;54.60;99718.56;10439390;27;96520;-84
2023/07/21 09:27:55;;;;;;;3.97;2.80;;;26.40;70.20;;;25.43;53.25;99732.63;10430740;27;96553;-85
2023/07/21 09:33:02;;;;;;;6.28;2.25;;;26.50;69.40;;;25.58;53.45;99748.91;10424254;27;96842;-84
2023/07/21 09:38:11;;;;;;;50.75;6.03;;;26.60;69.60;;;25.65;54.28;99754.84;10436715;27;98208;-84
2023/07/21 09:43:16;;;;;;;5.07;2.78;;;26.70;70.40;;;25.72;52.48;99749.94;10426050;27;97292;-84
2023/07/21 09:48:20;;;;;;;6.20;2.90;;;26.70;69.30;;;25.87;52.12;99749.09;10417586;27;97289;-84
2023/07/21 09:53:36;;;;;;;3.75;2.28;;;26.90;68.90;;;26.11;51.20;99736.44;10434270;27;97643;-84
2023/07/21 09:59:02;;;;;;;3.08;2.30;;;27.10;68.10;;;26.38;51.30;99733.25;10427469;27;97913;-84
2023/07/21 10:04:06;;;;;;;8.68;2.35;;;27.40;68.90;;;26.72;50.03;99723.50;10452457;27;97832;-84
2023/07/21 10:09:10;;;;;;;4.40;2.58;;;27.70;67.50;;;26.91;48.50;99716.22;10454844;27;96609;-84
2023/07/21 10:14:35;;;;;;;3.40;2.20;;;27.90;66.50;;;26.90;47.95;99704.50;10447028;27;97873;-84
2023/07/21 10:19:44;;;;;;;7.43;3.00;;;28.00;65.60;;;26.90;46.86;99699.03;10439357;27;98764;-84
2023/07/21 10:24:51;;;;;;;3.90;2.20;;;28.10;64.90;;;27.02;45.92;99686.94;10436061;27;97310;-84
2023/07/21 10:30:19;;;;;;;5.25;2.45;;;28.20;64.00;;;27.27;45.32;99672.22;10443023;27;96627;-84
2023/07/21 10:35:39;;;;;;;4.85;2.38;;;28.40;63.00;;;27.53;43.45;99662.66;10430232;27;96645;-84
2023/07/21 10:40:45;;;;;;;6.07;2.30;;;28.70;61.60;;;27.69;44.30;99672.25;10457005;27;96406;-83
2023/07/21 10:45:54;;;;;;;5.35;2.42;;;28.80;61.50;;;28.02;43.39;99660.63;10457639;27;96523;-84
2023/07/21 10:50:59;;;;;;;4.65;2.40;;;29.10;61.60;;;28.29;40.74;99652.53;10432303;27;96593;-84
2023/07/21 10:56:07;;;;;;;3.85;1.77;;;29.40;59.90;;;28.34;41.08;99652.47;10431567;27;96536;-84
2023/07/21 11:01:11;;;;;;;4.73;2.37;;;29.50;58.90;;;28.21;40.23;99655.94;10460825;27;96455;-84
2023/07/21 11:06:16;;;;;;;3.42;2.00;;;29.40;57.90;;;28.11;41.18;99664.28;10447098;27;96829;-84
2023/07/21 11:11:21;;;;;;;5.13;2.10;;;29.30;58.50;;;27.95;41.55;99653.63;10410217;28;97113;-84
2023/07/21 11:16:25;;;;;;;5.43;1.90;;;29.10;58.70;;;27.76;42.02;99647.31;10402065;27;96772;-84
2023/07/21 11:21:29;;;;;;;3.55;2.20;;;28.80;58.90;;;27.58;42.28;99646.19;10373900;28;96657;-84
2023/07/21 11:26:33;;;;;;;6.15;2.03;;;28.60;59.20;;;27.36;43.11;99635.03;10389385;28;96529;-84
2023/07/21 11:31:37;;;;;;;6.15;1.70;;;28.40;60.00;;;27.15;42.94;99637.19;10422409;27;96637;-85
2023/07/21 11:36:41;;;;;;;3.83;1.55;;;28.20;60.10;;;26.97;45.00;99648.81;10410685;28;96758;-85
2023/07/21 11:41:50;;;;;;;3.53;2.00;;;28.00;61.10;;;26.64;48.18;99673.16;10412058;27;96590;-85
2023/07/21 11:47:12;;;;;;;6.68;2.78;;;27.70;64.80;;;26.25;56.11;99694.94;10404483;27;96586;-85
2023/07/21 11:52:26;;;;;;;4.78;2.97;;;27.30;69.40;;;25.83;59.64;99702.56;10406775;27;96633;-86
2023/07/21 11:57:31;;;;;;;6.72;3.05;;;26.80;73.10;;;25.12;62.60;99696.56;10416509;28;96491;-85
2023/07/21 12:02:34;;;;;;;8.55;2.92;;;26.20;74.50;;;24.34;66.18;99681.38;10395526;28;97302;-86
2023/07/21 12:07:38;;;;;;;6.90;3.30;;;25.60;77.30;;;23.82;69.87;99665.28;10418732;27;96743;-86
2023/07/21 12:12:41;;;;;;;8.13;3.45;;;25.00;79.80;;;23.57;73.97;99665.97;10424933;27;96466;-86
2023/07/21 12:17:48;;;;;;;8.00;3.22;;;24.70;82.60;;;23.42;75.73;99688.44;10438144;27;96699;-86
2023/07/21 12:22:55;;;;;;;8.00;4.18;;;24.60;84.30;;;23.22;75.87;99698.13;10442247;27;96690;-85
2023/07/21 12:27:59;;;;;;;5.47;3.13;;;24.30;84.40;;;22.99;75.98;99695.81;10435972;27;96536;-85
2023/07/21 12:33:03;;;;;;;6.82;3.60;;;24.10;83.60;;;22.84;79.88;99669.38;10440561;27;96871;-85
2023/07/21 12:38:07;;;;;;;4.47;3.40;;;24.10;85.60;;;23.00;82.05;99662.22;10426541;27;96624;-85
2023/07/21 12:43:10;;;;;;;4.88;3.30;;;24.20;87.40;;;23.30;80.88;99666.97;10437602;27;96735;-85
2023/07/21 12:48:15;;;;;;;3.33;2.40;;;24.50;86.60;;;23.37;77.48;99693.84;10440520;27;97363;-85
2023/07/21 12:53:18;;;;;;;6.93;2.72;;;24.60;85.40;;;23.21;74.60;99739.84;10454453;27;96765;-85
2023/07/21 12:58:22;;;;;;;5.20;3.10;;;24.40;84.70;;;23.04;75.42;99736.50;10441187;27;96620;-85
2023/07/21 13:03:26;;;;;;;4.47;2.55;;;24.20;86.00;;;22.84;78.83;99728.97;10445659;27;96881;-84
2023/07/21 13:08:30;;;;;;;7.40;4.03;;;24.00;87.20;;;22.66;81.55;99727.50;10403734;27;96715;-85
2023/07/21 13:13:33;;;;;;;5.00;3.58;;;23.70;89.30;;;22.54;85.75;99743.09;10437993;27;98425;-85
2023/07/21 13:18:37;;;;;;;7.03;4.07;;;23.60;90.50;;;22.44;88.51;99724.06;10452395;27;96629;-84
2023/07/21 13:23:41;;;;;;;13.75;3.70;;;23.40;91.50;;;22.49;90.57;99698.91;10454736;27;96648;-84
2023/07/21 13:28:45;;;;;;;8.35;3.83;;;23.50;91.90;;;22.60;90.41;99692.50;10461244;27;96645;-84
2023/07/21 13:33:48;;;;;;;6.35;3.38;;;23.70;92.00;;;22.66;87.21;99694.19;10419748;27;96525;-84
2023/07/21 13:38:52;;;;;;;5.13;3.22;;;23.80;91.80;;;22.66;84.81;99678.75;10446642;27;96486;-84
2023/07/21 13:43:56;;;;;;;5.10;2.80;;;23.80;91.50;;;22.76;86.07;99663.66;10428466;27;96622;-84
2023/07/21 13:48:59;;;;;;;4.30;2.58;;;23.90;91.60;;;22.96;84.83;99661.09;10438407;27;96597;-84
2023/07/21 13:54:05;;;;;;;5.32;2.20;;;24.00;91.50;;;22.92;73.59;99676.25;10462464;27;96416;-84
2023/07/21 13:59:08;;;;;;;4.25;2.03;;;24.10;88.30;;;22.83;73.35;99666.94;10472527;27;96943;-84
2023/07/21 14:04:12;;;;;;;4.28;2.28;;;24.00;87.50;;;22.71;70.76;99659.81;10437058;27;96705;-83
2023/07/21 14:09:17;;;;;;;10.43;2.42;;;23.90;85.80;;;22.69;72.30;99651.16;10441447;27;97417;-83
2023/07/21 14:14:20;;;;;;;4.32;2.45;;;23.80;86.20;;;22.68;74.75;99627.06;10444053;27;96782;-83
2023/07/21 14:19:24;;;;;;;3.75;2.80;;;23.70;87.20;;;22.66;78.64;99611.03;10441620;27;98080;-83
2023/07/21 14:24:27;;;;;;;6.82;3.22;;;23.80;89.50;;;22.89;80.77;99606.34;10445810;27;98164;-83
2023/07/21 14:29:31;;;;;;;5.45;2.90;;;23.90;90.60;;;23.27;81.88;99616.00;10459762;27;96526;-84
2023/07/21 14:34:35;;;;;;;5.28;3.10;;;24.30;90.70;;;23.39;78.95;99589.47;10442974;27;97521;-85
2023/07/21 14:39:39;;;;;;;4.43;2.50;;;24.60;90.20;;;23.43;76.66;99589.75;10460722;27;96523;-84
2023/07/21 14:44:42;;;;;;;3.40;2.20;;;24.60;89.10;;;23.32;69.17;99597.03;10485015;27;96832;-84
2023/07/21 14:49:46;;;;;;;3.15;2.00;;;24.50;85.20;;;23.13;68.28;99606.72;10457884;27;96812;-84
2023/07/21 14:54:49;;;;;;;4.28;2.05;;;24.30;84.10;;;23.02;69.05;99605.84;10443905;27;96442;-84
2023/07/21 14:59:53;;;;;;;5.03;2.67;;;24.10;84.10;;;22.96;70.45;99598.78;10425861;27;96793;-84
2023/07/21 15:04:56;;;;;;;3.47;2.28;;;24.10;84.50;;;22.93;70.44;99580.34;10439683;27;97063;-84
2023/07/21 15:10:00;;;;;;;4.75;2.17;;;24.10;84.70;;;23.02;70.62;99567.09;10439604;27;96842;-84
2023/07/21 15:15:05;;;;;;;4.40;3.42;;;24.10;84.80;;;23.23;67.87;99545.25;10441813;27;96605;-84
2023/07/21 15:20:15;;;;;;;4.70;2.47;;;24.50;84.00;;;23.49;67.03;99529.84;10431139;27;97483;-84
2023/07/21 15:25:21;;;;;;;3.40;2.00;;;24.80;82.90;;;23.91;66.20;99512.53;10421971;27;97486;-84
2023/07/21 15:30:24;;;;;;;6.18;2.53;;;25.30;82.40;;;24.25;65.82;99493.75;10426402;27;96599;-84
2023/07/21 15:35:28;;;;;;;5.07;2.20;;;25.70;81.00;;;24.43;63.97;99483.44;10435832;27;96642;-84
2023/07/21 15:40:31;;;;;;;3.90;2.45;;;25.90;79.30;;;24.29;64.35;99475.84;10406966;27;96662;-85
2023/07/21 15:45:38;;;;;;;3.35;2.38;;;25.80;79.30;;;24.04;63.33;99481.31;10446683;27;97516;-85
2023/07/21 15:50:42;;;;;;;4.72;2.38;;;25.60;78.80;;;23.80;65.90;99477.53;10423962;27;97119;-84
2023/07/21 15:55:47;;;;;;;4.05;2.38;;;25.20;79.70;;;23.66;66.17;99452.88;10418790;27;98097;-85
2023/07/21 16:01:02;;;;;;;2.95;2.05;;;25.00;80.20;;;23.55;65.34;99460.16;10437165;27;96620;-84
2023/07/21 16:06:07;;;;;;;5.65;2.55;;;24.90;80.30;;;23.58;64.52;99440.63;10440036;27;96909;-85
2023/07/21 16:11:12;;;;;;;4.03;2.38;;;24.80;79.80;;;23.59;63.85;99442.25;10432320;27;97440;-85
2023/07/21 16:16:16;;;;;;;4.30;1.92;;;24.80;79.10;;;23.46;61.12;99421.13;10408300;27;98325;-85
2023/07/21 16:21:20;;;;;;;5.07;1.90;;;24.80;77.30;;;23.20;61.92;99412.13;10417762;28;97595;-85
2023/07/21 16:26:23;;;;;;;5.47;2.45;;;24.50;77.50;;;23.01;63.29;99416.47;10437146;27;98165;-86
2023/07/21 16:31:27;;;;;;;4.72;2.40;;;24.20;78.00;;;22.87;63.71;99413.47;10423212;27;96857;-85
2023/07/21 16:36:31;;;;;;;2.95;2.13;;;24.00;78.50;;;22.69;64.44;99406.59;10441413;27;96775;-86
2023/07/21 16:41:35;;;;;;;3.22;1.92;;;23.90;78.90;;;22.59;64.80;99401.97;10458588;27;96381;-86
2023/07/21 16:46:39;;;;;;;2.95;2.08;;;23.70;79.20;;;22.39;65.31;99388.38;10457287;27;96724;-85
2023/07/21 16:51:43;;;;;;;3.03;2.08;;;23.50;79.60;;;22.23;66.13;99398.31;10442160;27;96416;-86
2023/07/21 16:56:47;;;;;;;2.72;1.80;;;23.40;80.40;;;22.07;66.57;99386.59;10455196;27;96821;-86
2023/07/21 17:01:51;;;;;;;4.55;2.00;;;23.20;81.10;;;22.03;67.50;99396.28;10457404;27;96596;-86
2023/07/21 17:06:55;;;;;;;3.58;2.22;;;23.10;81.50;;;21.96;68.47;99374.06;10443335;27;97468;-86
2023/07/21 17:11:58;;;;;;;4.22;2.25;;;23.10;82.00;;;21.93;69.40;99366.47;10425097;27;98336;-86
2023/07/21 17:17:02;;;;;;;4.78;2.28;;;23.00;82.60;;;21.84;69.47;99374.28;10445350;27;97545;-86
2023/07/21 17:22:06;;;;;;;4.57;2.22;;;22.90;82.90;;;21.82;69.55;99381.00;10424390;27;97274;-86
2023/07/21 17:27:10;;;;;;;3.83;2.10;;;22.90;83.30;;;21.78;71.10;99444.81;10433069;27;96712;-86
2023/07/21 17:32:13;;;;;;;12.85;4.40;;;22.80;84.40;;;21.60;75.64;99433.34;10471905;27;96691;-88
2023/07/21 17:37:17;;;;;;;8.32;3.70;;;22.70;87.00;;;21.05;82.76;99414.69;10445918;27;98186;-90
2023/07/21 17:42:20;;;;;;;8.52;4.30;;;22.30;89.30;;;20.46;86.70;99453.19;10470298;27;96582;-88
2023/07/21 17:47:24;;;;;;;5.75;3.20;;;21.80;90.90;;;19.96;90.72;99537.69;10425276;27;96547;-89
2023/07/21 17:52:28;;;;;;;5.55;3.40;;;21.30;92.20;;;19.48;95.47;99571.31;10416091;27;96676;-90
2023/07/21 17:57:32;;;;;;;5.68;3.78;;;20.80;94.00;;;19.02;100.00;99634.25;10432867;27;96696;-90
2023/07/21 18:02:36;;;;;;;7.10;4.30;;;20.30;96.70;;;18.64;100.00;99673.19;10424720;27;97078;-92
2023/07/21 18:07:40;;;;;;;7.50;4.68;;;19.80;99.30;;;18.26;100.00;99652.09;10418320;27;96712;-92
2023/07/21 18:12:44;;;;;;;7.22;4.22;;;19.40;99.90;;;17.98;100.00;99658.09;10423873;27;97005;-95
2023/07/21 18:17:48;;;;;;;7.88;5.55;;;19.10;99.90;;;17.69;100.00;99635.53;10440916;27;96702;-93
2023/07/21 18:22:53;;;;;;;12.90;6.03;;;18.80;99.90;;;17.48;100.00;99634.19;10392244;27;96638;-92
2023/07/21 18:27:57;;;;;;;17.35;6.57;;;18.60;99.90;;;17.41;100.00;99638.81;10453533;27;96695;-93
2023/07/21 18:33:00;;;;;;;10.90;7.70;;;18.50;99.90;;;17.38;100.00;99623.97;10414407;27;96689;-93
2023/07/21 18:38:04;;;;;;;12.68;6.78;;;18.40;99.90;;;17.41;100.00;99636.13;10431733;27;96611;-93
2023/07/21 18:43:08;;;;;;;11.57;8.35;;;18.40;99.90;;;17.38;100.00;99613.22;10423735;27;97143;-93
2023/07/21 18:48:15;;;;;;;16.15;9.60;;;18.50;99.90;;;17.45;100.00;99588.13;10434525;27;96913;-93
2023/07/21 18:53:18;;;;;;;20.73;10.20;;;18.50;99.90;;;17.48;100.00;99587.69;10461851;27;96480;-94
2023/07/21 18:58:22;;;;;;;11.55;8.98;;;18.60;99.90;;;17.55;100.00;99589.22;10422949;27;98311;-93
2023/07/21 19:03:26;;;;;;;13.95;11.27;;;18.60;99.90;;;17.51;100.00;99596.13;10417616;27;96657;-94
2023/07/21 19:08:30;;;;;;;12.30;10.10;;;18.60;99.90;;;17.51;100.00;99592.59;10387039;28;96647;-94
2023/07/21 19:13:33;;;;;;;14.55;10.75;;;18.60;99.90;;;17.56;100.00;99579.31;10444044;27;96698;-95
2023/07/21 19:18:38;;;;;;;9.75;8.63;;;18.70;99.90;;;17.52;100.00;99575.47;10410410;27;96959;-93
2023/07/21 19:23:42;;;;;;;9.68;7.10;;;18.70;99.90;;;17.49;100.00;99570.53;10422916;27;96732;-93
2023/07/21 19:28:46;;;;;;;12.48;9.25;;;18.60;99.90;;;17.44;100.00;99538.16;10451021;27;96671;-94
2023/07/21 19:33:50;;;;;;;15.32;9.95;;;18.60;99.90;;;17.44;100.00;99532.78;10429960;27;97409;-94
2023/07/21 19:38:54;;;;;;;11.68;9.55;;;18.60;99.90;;;17.46;100.00;99522.66;10443230;27;96615;-93
2023/07/21 19:43:59;;;;;;;9.48;8.43;;;18.60;99.90;;;17.38;100.00;99497.72;10412567;27;96791;-96
2023/07/21 19:49:04;;;;;;;9.18;7.20;;;18.60;99.90;;;17.34;100.00;99504.63;10451186;27;96493;-95
2023/07/21 19:54:11;;;;;;;11.75;7.88;;;18.50;99.90;;;17.32;100.00;99517.44;10406066;27;96617;-96
2023/07/21 19:59:19;;;;;;;13.77;8.55;;;18.50;99.90;;;17.39;100.00;99542.38;10448072;27;96701;-96
2023/07/21 20:09:39;;;;;;;9.90;8.50;;;18.50;99.90;;;17.44;100.00;99584.63;10287970;28;96658;-89
2023/07/21 20:14:43;;;;;;;11.77;8.43;;;18.50;99.90;;;17.42;100.00;99588.59;10258981;28;97464;-90
2023/07/21 20:19:51;;;;;;;10.07;7.63;;;18.50;99.90;;;17.40;100.00;99591.53;10255811;28;96688;-89
2023/07/21 20:24:55;;;;;;;9.80;7.25;;;18.50;99.90;;;17.30;100.00;99602.78;10256030;28;96682;-90
2023/07/21 20:29:58;;;;;;;8.13;6.47;;;18.40;99.90;;;17.24;100.00;99614.44;10278528;28;98145;-90
2023/07/21 20:35:02;;;;;;;6.95;5.72;;;18.30;99.90;;;17.13;100.00;99616.00;10249833;28;98323;-88
2023/07/21 20:40:07;;;;;;;7.45;6.43;;;18.30;99.90;;;17.10;100.00;99631.75;10255389;28;96607;-89
2023/07/21 20:45:12;;;;;;;7.38;6.00;;;18.20;99.90;;;17.00;100.00;99626.09;10270466;28;96551;-90
2023/07/21 20:50:16;;;;;;;8.93;6.25;;;18.10;99.90;;;16.96;100.00;99625.69;10249922;28;96904;-89
2023/07/21 20:55:20;;;;;;;11.02;7.63;;;18.10;99.90;;;16.92;100.00;99621.03;10271243;28;98394;-88
2023/07/21 21:00:24;;;;;;;8.45;7.50;;;18.10;99.90;;;16.94;100.00;99618.94;10245962;28;98479;-89
2023/07/21 21:05:27;;;;;;;7.88;6.28;;;18.10;99.90;;;16.97;100.00;99629.19;10249666;28;96630;-89
2023/07/21 21:10:31;;;;;;;12.82;8.20;;;18.10;99.90;;;16.95;100.00;99633.97;10268445;28;96731;-89